createdAt,value
2019-01-24T00:02:09.365Z,25.87
2019-01-24T00:04:38.431Z,25.13
2019-01-24T00:07:07.440Z,24.97
2019-01-24T00:09:36.445Z,24.70
2019-01-24T00:12:05.475Z,25.30
2019-01-24T00:14:34.569Z,23.33
2019-01-24T00:17:03.648Z,24.93
2019-01-24T00:19:32.753Z,25.13
2019-01-24T00:22:01.838Z,26.57
2019-01-24T00:24:30.948Z,25.10
2019-01-24T00:26:59.931Z,24.30
2019-01-24T00:29:29.061Z,23.90
2019-01-24T00:31:58.069Z,24.23
2019-01-24T00:34:27.174Z,26.23
2019-01-24T00:36:56.295Z,23.90
2019-01-24T00:39:25.282Z,24.33
2019-01-24T00:41:54.279Z,24.17
2019-01-24T00:44:23.355Z,25.47
2019-01-24T00:46:52.384Z,24.50
2019-01-24T00:49:21.494Z,24.30
2019-01-24T00:51:50.489Z,25.17
2019-01-24T00:54:19.626Z,25.50
2019-01-24T00:56:48.630Z,24.93
2019-01-24T00:59:17.627Z,25.10
2019-01-24T01:01:46.638Z,24.53
2019-01-24T01:04:15.655Z,27.27
2019-01-24T01:06:44.647Z,26.47
2019-01-24T01:09:15.411Z,24.63
2019-01-24T01:11:44.407Z,25.90
2019-01-24T01:14:13.411Z,24.70
2019-01-24T01:16:42.396Z,25.10
2019-01-24T01:19:11.475Z,25.93
2019-01-24T01:21:40.541Z,26.73
2019-01-24T01:24:09.612Z,23.97
2019-01-24T01:26:41.413Z,25.77
2019-01-24T01:29:10.520Z,25.27
2019-01-24T01:31:39.584Z,25.33
2019-01-24T01:34:08.659Z,26.27
2019-01-24T01:36:37.703Z,25.73
2019-01-24T01:39:07.624Z,24.43
2019-01-24T01:41:36.681Z,24.47
2019-01-24T01:44:05.780Z,24.87
2019-01-24T01:46:34.743Z,25.67
2019-01-24T01:49:04.022Z,24.17
2019-01-24T01:51:33.019Z,24.70
2019-01-24T01:54:02.176Z,25.00
2019-01-24T01:56:31.181Z,24.97
2019-01-24T01:59:00.199Z,25.30
2019-01-24T02:01:29.192Z,23.83
2019-01-24T02:03:58.240Z,24.20
2019-01-24T02:06:27.278Z,22.90
2019-01-24T02:08:56.379Z,26.17
2019-01-24T02:11:25.361Z,25.57
2019-01-24T02:13:54.487Z,25.87
2019-01-24T02:16:23.547Z,25.07
2019-01-24T02:18:52.641Z,25.20
2019-01-24T02:21:21.618Z,25.53
2019-01-24T02:23:53.458Z,25.63
2019-01-24T02:26:22.528Z,25.40
2019-01-24T02:28:51.527Z,24.07
2019-01-24T02:31:20.606Z,25.40
2019-01-24T02:33:49.648Z,25.33
2019-01-24T02:36:18.639Z,24.37
2019-01-24T02:38:47.623Z,26.93
2019-01-24T02:41:16.627Z,23.93
2019-01-24T02:43:45.631Z,25.77
2019-01-24T02:46:14.652Z,25.27
2019-01-24T02:48:43.624Z,23.13
2019-01-24T02:51:12.635Z,24.93
2019-01-24T02:53:41.666Z,25.70
2019-01-24T02:56:10.689Z,27.50
2019-01-24T02:58:39.688Z,25.87
2019-01-24T03:01:08.694Z,24.40
2019-01-24T03:03:37.715Z,25.47
2019-01-24T03:06:06.715Z,25.07
2019-01-24T03:08:35.784Z,24.23
2019-01-24T03:11:04.930Z,25.47
2019-01-24T03:13:33.935Z,24.07
2019-01-24T03:16:03.078Z,24.50
2019-01-24T03:18:32.144Z,24.70
2019-01-24T03:21:01.136Z,25.23
2019-01-24T03:23:30.115Z,24.37
2019-01-24T03:25:59.134Z,24.70
2019-01-24T03:28:28.150Z,25.13
2019-01-24T03:30:57.161Z,25.07
2019-01-24T03:33:26.174Z,24.03
2019-01-24T03:35:55.191Z,25.13
2019-01-24T03:38:24.180Z,25.93
2019-01-24T03:40:54.015Z,25.97
2019-01-24T03:43:23.083Z,25.57
2019-01-24T03:45:52.211Z,25.90
2019-01-24T03:48:21.188Z,25.53
2019-01-24T03:50:50.259Z,25.17
2019-01-24T03:53:19.246Z,26.90
2019-01-24T03:55:48.252Z,26.70
2019-01-24T03:58:17.234Z,26.33
2019-01-24T04:00:46.263Z,25.33
2019-01-24T04:03:15.330Z,27.13
2019-01-24T04:05:44.323Z,26.80
2019-01-24T04:08:13.310Z,26.67
2019-01-24T04:10:42.398Z,26.00
2019-01-24T04:13:11.387Z,25.70
2019-01-24T04:15:40.462Z,26.53
2019-01-24T04:18:09.485Z,24.77
2019-01-24T04:20:38.474Z,26.57
2019-01-24T04:23:07.455Z,25.13
2019-01-24T04:25:36.504Z,24.13
2019-01-24T04:28:05.527Z,24.43
2019-01-24T04:30:34.535Z,26.27
2019-01-24T04:33:03.524Z,25.97
2019-01-24T04:35:32.575Z,26.43
2019-01-24T04:38:01.561Z,25.97
2019-01-24T04:40:30.566Z,28.37
2019-01-24T04:42:59.622Z,27.73
2019-01-24T04:45:28.649Z,27.60
2019-01-24T04:47:57.720Z,27.70
2019-01-24T04:50:26.870Z,27.07
2019-01-24T04:52:55.840Z,26.97
2019-01-24T04:55:24.853Z,25.37
2019-01-24T04:57:54.997Z,25.27
2019-01-24T05:00:25.415Z,24.93
2019-01-24T05:02:54.411Z,25.23
2019-01-24T05:05:27.856Z,25.40
2019-01-24T05:07:54.081Z,24.40
2019-01-24T05:10:23.095Z,25.23
2019-01-24T05:12:52.072Z,24.80
2019-01-24T05:15:21.077Z,24.70
2019-01-24T05:17:50.036Z,26.53
2019-01-24T05:20:19.074Z,24.70
2019-01-24T05:22:48.174Z,24.37
2019-01-24T05:25:17.351Z,24.80
2019-01-24T05:27:46.483Z,23.63
2019-01-24T05:30:17.170Z,25.63
2019-01-24T05:32:46.173Z,24.23
2019-01-24T05:35:15.146Z,23.90
2019-01-24T05:37:44.147Z,25.20
2019-01-24T05:40:13.123Z,24.23
2019-01-24T05:42:42.114Z,24.13
2019-01-24T05:45:11.222Z,24.37
2019-01-24T05:47:40.288Z,24.67
2019-01-24T05:50:09.517Z,24.90
2019-01-24T05:52:38.747Z,24.60
2019-01-24T05:55:08.194Z,24.70
2019-01-24T05:57:37.203Z,26.80
2019-01-24T06:00:07.092Z,26.17
2019-01-24T06:02:36.388Z,26.43
2019-01-24T06:05:05.964Z,26.10
2019-01-24T06:07:34.964Z,26.50
2019-01-24T06:10:04.499Z,25.53
2019-01-24T06:12:33.556Z,24.83
2019-01-24T06:15:02.619Z,24.60
2019-01-24T06:17:31.630Z,24.93
2019-01-24T06:20:00.642Z,25.63
2019-01-24T06:22:29.742Z,24.87
2019-01-24T06:24:58.814Z,24.37
2019-01-24T06:27:27.818Z,24.20
2019-01-24T06:29:56.799Z,26.63
2019-01-24T06:32:25.786Z,25.53
2019-01-24T06:34:54.759Z,27.20
2019-01-24T06:37:23.766Z,26.77
2019-01-24T06:39:52.757Z,26.07
2019-01-24T06:42:21.744Z,29.00
2019-01-24T06:44:50.806Z,27.60
2019-01-24T06:47:19.806Z,28.10
2019-01-24T06:49:48.785Z,28.27
2019-01-24T06:52:17.878Z,28.47
2019-01-24T06:54:46.910Z,27.13
2019-01-24T06:57:15.902Z,27.37
2019-01-24T06:59:44.999Z,27.50
2019-01-24T07:02:14.026Z,28.50
2019-01-24T07:04:43.060Z,27.90
2019-01-24T07:07:12.059Z,27.07
2019-01-24T07:09:41.042Z,26.97
2019-01-24T07:12:10.029Z,26.07
2019-01-24T07:14:39.027Z,27.87
2019-01-24T07:17:08.031Z,27.80
2019-01-24T07:19:37.038Z,26.47
2019-01-24T07:22:06.050Z,26.80
2019-01-24T07:24:35.178Z,26.93
2019-01-24T07:27:04.264Z,27.10
2019-01-24T07:29:33.269Z,28.30
2019-01-24T07:32:02.329Z,28.77
2019-01-24T07:34:31.349Z,27.33
2019-01-24T07:37:00.336Z,27.27
2019-01-24T07:39:29.347Z,28.63
2019-01-24T07:41:58.383Z,29.20
2019-01-24T07:44:27.395Z,28.53
2019-01-24T07:46:56.421Z,29.83
2019-01-24T07:49:25.499Z,30.57
2019-01-24T07:51:54.502Z,30.07
2019-01-24T07:54:23.494Z,30.90
2019-01-24T07:56:52.486Z,28.77
2019-01-24T07:59:21.481Z,32.27
2019-01-24T08:01:50.516Z,31.70
2019-01-24T08:04:19.541Z,31.47
2019-01-24T08:06:48.619Z,32.13
2019-01-24T08:09:17.688Z,32.73
2019-01-24T08:11:46.676Z,32.37
2019-01-24T08:14:15.751Z,33.03
2019-01-24T08:16:44.713Z,31.57
2019-01-24T08:19:13.702Z,32.97
2019-01-24T08:21:42.697Z,32.13
2019-01-24T08:24:11.692Z,31.83
2019-01-24T08:26:40.772Z,31.30
2019-01-24T08:29:09.803Z,32.87
2019-01-24T08:31:38.844Z,32.93
2019-01-24T08:34:07.877Z,33.70
2019-01-24T08:36:36.858Z,33.33
2019-01-24T08:39:07.338Z,34.37
2019-01-24T08:41:36.332Z,33.60
2019-01-24T08:44:05.334Z,33.33
2019-01-24T08:46:34.348Z,32.73
2019-01-24T08:49:03.498Z,33.40
2019-01-24T08:51:32.494Z,33.43
2019-01-24T08:54:01.508Z,32.13
2019-01-24T08:56:30.511Z,31.90
2019-01-24T08:58:59.571Z,33.03
2019-01-24T09:01:28.553Z,33.20
2019-01-24T09:03:57.568Z,32.00
2019-01-24T09:06:26.606Z,33.00
2019-01-24T09:08:55.629Z,38.83
2019-01-24T09:11:24.688Z,34.07
2019-01-24T09:13:53.847Z,35.33
2019-01-24T09:16:22.839Z,32.17
2019-01-24T09:18:51.831Z,34.03
2019-01-24T09:21:20.824Z,34.23
2019-01-24T09:23:49.840Z,35.17
2019-01-24T09:26:18.812Z,32.57
2019-01-24T09:28:47.847Z,34.13
2019-01-24T09:31:16.847Z,35.87
2019-01-24T09:33:45.847Z,35.20
2019-01-24T09:36:14.892Z,36.27
2019-01-24T09:38:43.925Z,36.07
2019-01-24T09:41:12.917Z,34.83
2019-01-24T09:43:41.907Z,36.20
2019-01-24T09:46:10.907Z,35.13
2019-01-24T09:48:39.901Z,34.33
2019-01-24T09:51:08.875Z,37.30
2019-01-24T09:53:37.907Z,35.13
2019-01-24T09:56:06.878Z,36.63
2019-01-24T09:58:35.950Z,36.27
2019-01-24T10:01:04.929Z,35.47
2019-01-24T10:03:33.924Z,35.43
2019-01-24T10:06:03.031Z,37.30
2019-01-24T10:08:32.042Z,38.80
2019-01-24T10:11:01.019Z,37.43
2019-01-24T10:13:30.014Z,36.43
2019-01-24T10:15:59.057Z,37.17
2019-01-24T10:18:28.044Z,37.10
2019-01-24T10:20:57.027Z,36.10
2019-01-24T10:23:26.040Z,38.57
2019-01-24T10:25:55.018Z,41.33
2019-01-24T10:28:24.019Z,39.23
2019-01-24T10:30:53.097Z,39.10
2019-01-24T10:33:22.113Z,39.33
2019-01-24T10:35:51.133Z,37.73
2019-01-24T10:38:20.211Z,38.83
2019-01-24T10:40:49.249Z,37.03
2019-01-24T10:43:18.312Z,37.93
2019-01-24T10:45:47.437Z,38.33
2019-01-24T10:48:16.430Z,38.17
2019-01-24T10:50:45.426Z,39.37
2019-01-24T10:53:14.386Z,37.63
2019-01-24T10:55:43.406Z,38.60
2019-01-24T10:58:12.387Z,38.67
2019-01-24T11:00:42.133Z,37.03
2019-01-24T11:03:15.258Z,36.17
2019-01-24T11:05:44.411Z,36.63
2019-01-24T11:08:16.521Z,36.70
2019-01-24T11:10:45.526Z,36.37
2019-01-24T11:13:14.549Z,37.90
2019-01-24T11:15:43.590Z,36.67
2019-01-24T11:18:12.571Z,35.73
2019-01-24T11:20:41.579Z,38.00
2019-01-24T11:23:10.589Z,35.67
2019-01-24T11:25:39.592Z,35.30
2019-01-24T11:28:08.673Z,35.13
2019-01-24T11:30:37.648Z,38.10
2019-01-24T11:33:06.955Z,36.40
2019-01-24T11:35:36.046Z,35.50
2019-01-24T11:38:05.337Z,36.83
2019-01-24T11:40:34.469Z,35.70
2019-01-24T11:43:03.585Z,35.30
2019-01-24T11:45:33.765Z,36.80
2019-01-24T11:48:02.883Z,37.13
2019-01-24T11:50:31.896Z,36.10
2019-01-24T11:53:00.891Z,33.73
2019-01-24T11:55:29.911Z,33.53
2019-01-24T11:57:58.907Z,35.00
2019-01-24T12:00:31.569Z,33.40
2019-01-24T12:03:00.571Z,34.73
2019-01-24T12:05:29.658Z,34.73
2019-01-24T12:07:58.729Z,33.00
2019-01-24T12:10:27.834Z,34.30
2019-01-24T12:12:56.884Z,34.10
2019-01-24T12:15:26.037Z,33.37
2019-01-24T12:17:55.050Z,33.97
2019-01-24T12:20:24.195Z,33.20
2019-01-24T12:22:53.355Z,34.00
2019-01-24T12:25:22.407Z,33.07
2019-01-24T12:27:51.403Z,34.53
2019-01-24T12:30:21.587Z,33.77
2019-01-24T12:32:50.679Z,34.13
2019-01-24T12:35:19.675Z,34.57
2019-01-24T12:37:48.692Z,31.37
2019-01-24T12:40:17.687Z,32.53
2019-01-24T12:42:46.757Z,33.63
2019-01-24T12:45:17.043Z,32.70
2019-01-24T12:47:46.055Z,33.70
2019-01-24T12:50:15.553Z,33.17
2019-01-24T12:52:44.534Z,36.93
2019-01-24T12:55:13.649Z,32.97
2019-01-24T12:57:42.626Z,31.40
2019-01-24T13:00:16.035Z,31.03
2019-01-24T13:02:45.099Z,31.93
2019-01-24T13:05:14.095Z,29.80
2019-01-24T13:07:43.082Z,32.00
2019-01-24T13:10:13.590Z,32.97
2019-01-24T13:12:42.572Z,30.83
2019-01-24T13:15:11.807Z,30.13
2019-01-24T13:17:40.905Z,31.27
2019-01-24T13:20:10.923Z,35.07
2019-01-24T13:22:39.919Z,33.07
2019-01-24T13:25:10.119Z,33.33
2019-01-24T13:27:39.115Z,33.43
2019-01-24T13:30:10.367Z,31.10
2019-01-24T13:32:39.436Z,31.67
2019-01-24T13:35:08.495Z,33.33
2019-01-24T13:37:37.487Z,33.33
2019-01-24T13:40:07.586Z,37.70
2019-01-24T13:42:36.564Z,40.07
2019-01-24T13:45:06.704Z,33.00
2019-01-24T13:47:35.679Z,31.70
2019-01-24T13:50:05.174Z,32.00
2019-01-24T13:52:34.223Z,32.70
2019-01-24T13:55:03.302Z,32.37
2019-01-24T13:57:32.383Z,32.67
2019-01-24T14:00:03.480Z,34.23
2019-01-24T14:02:32.479Z,32.83
2019-01-24T14:05:01.479Z,33.43
2019-01-24T14:07:33.077Z,32.07
2019-01-24T14:10:01.145Z,32.33
2019-01-24T14:12:30.199Z,32.23
2019-01-24T14:14:59.222Z,30.80
2019-01-24T14:17:28.287Z,31.83
2019-01-24T14:19:57.303Z,32.90
2019-01-24T14:22:26.291Z,32.37
2019-01-24T14:24:55.375Z,32.23
2019-01-24T14:27:24.376Z,32.03
2019-01-24T14:29:53.392Z,31.97
2019-01-24T14:32:23.441Z,30.33
2019-01-24T14:34:52.438Z,31.60
2019-01-24T14:37:21.465Z,32.70
2019-01-24T14:39:50.543Z,32.13
2019-01-24T14:42:19.639Z,31.80
2019-01-24T14:44:48.714Z,32.63
2019-01-24T14:47:17.723Z,31.10
2019-01-24T14:49:46.747Z,31.10
2019-01-24T14:52:15.795Z,29.83
2019-01-24T14:54:44.796Z,30.97
2019-01-24T14:57:13.887Z,31.73
2019-01-24T14:59:42.925Z,28.53
2019-01-24T15:02:11.921Z,30.90
2019-01-24T15:04:40.913Z,28.63
2019-01-24T15:07:09.995Z,29.27
2019-01-24T15:09:39.051Z,28.77
2019-01-24T15:12:08.048Z,30.47
2019-01-24T15:14:37.055Z,29.40
2019-01-24T15:17:06.100Z,28.70
2019-01-24T15:19:35.083Z,27.17
2019-01-24T15:22:04.187Z,27.90
2019-01-24T15:24:33.274Z,29.97
2019-01-24T15:27:02.280Z,30.47
2019-01-24T15:29:31.263Z,31.43
2019-01-24T15:32:00.263Z,28.80
2019-01-24T15:34:29.311Z,32.07
2019-01-24T15:36:58.495Z,31.17
2019-01-24T15:39:29.190Z,29.73
2019-01-24T15:42:00.492Z,30.57
2019-01-24T15:44:29.571Z,30.10
2019-01-24T15:46:58.692Z,30.93
2019-01-24T15:49:27.668Z,30.50
2019-01-24T15:51:56.823Z,29.20
2019-01-24T15:54:25.829Z,29.87
2019-01-24T15:56:54.943Z,32.33
2019-01-24T15:59:24.188Z,31.97
2019-01-24T16:01:53.274Z,31.07
2019-01-24T16:04:22.275Z,30.33
2019-01-24T16:06:51.268Z,32.07
2019-01-24T16:09:20.252Z,31.67
2019-01-24T16:11:49.263Z,30.60
2019-01-24T16:14:18.250Z,31.17
2019-01-24T16:16:47.266Z,30.20
2019-01-24T16:19:16.334Z,32.30
2019-01-24T16:21:45.404Z,30.60
2019-01-24T16:24:14.384Z,32.07
2019-01-24T16:26:43.422Z,32.47
2019-01-24T16:29:12.408Z,33.40
2019-01-24T16:31:41.480Z,32.93
2019-01-24T16:34:10.584Z,32.23
2019-01-24T16:36:39.594Z,33.47
2019-01-24T16:39:09.102Z,33.13
2019-01-24T16:41:38.134Z,32.67
2019-01-24T16:44:07.182Z,31.07
2019-01-24T16:46:36.559Z,30.77
2019-01-24T16:49:05.661Z,32.73
2019-01-24T16:51:34.664Z,32.67
2019-01-24T16:54:05.311Z,34.27
2019-01-24T16:56:34.318Z,33.03
2019-01-24T16:59:03.348Z,32.70
2019-01-24T17:01:32.372Z,31.70
2019-01-24T17:04:01.340Z,32.63
2019-01-24T17:06:30.350Z,32.03
2019-01-24T17:08:59.486Z,32.77
2019-01-24T17:11:31.103Z,34.87
2019-01-24T17:13:59.344Z,32.23
2019-01-24T17:16:28.345Z,31.87
2019-01-24T17:18:57.335Z,30.47
2019-01-24T17:21:26.411Z,31.70
2019-01-24T17:23:56.759Z,30.50
2019-01-24T17:26:25.770Z,30.83
2019-01-24T17:28:54.777Z,30.43
2019-01-24T17:31:23.792Z,33.43
2019-01-24T17:33:52.796Z,30.37
2019-01-24T17:36:21.852Z,31.03
2019-01-24T17:38:50.863Z,22.40
2019-01-24T17:41:19.835Z,31.10
2019-01-24T17:43:48.930Z,30.07
2019-01-24T17:46:17.915Z,30.27
2019-01-24T17:48:46.929Z,30.83
2019-01-24T17:51:15.986Z,24.20
2019-01-24T17:53:45.077Z,22.00
2019-01-24T17:56:14.248Z,22.07
2019-01-24T17:58:43.265Z,21.73
2019-01-24T18:01:12.374Z,23.10
2019-01-24T18:03:42.604Z,23.10
2019-01-24T18:06:12.157Z,23.07
2019-01-24T18:08:41.305Z,23.90
2019-01-24T18:11:10.348Z,23.93
2019-01-24T18:13:39.447Z,23.53
2019-01-24T18:16:08.661Z,23.87
2019-01-24T18:18:37.998Z,24.27
2019-01-24T18:21:07.131Z,22.67
2019-01-24T18:23:36.347Z,24.43
2019-01-24T18:26:05.509Z,22.10
2019-01-24T18:28:34.616Z,23.87
2019-01-24T18:31:03.922Z,24.83
2019-01-24T18:33:33.016Z,24.87
2019-01-24T18:36:02.131Z,24.43
2019-01-24T18:38:38.359Z,25.20
2019-01-24T18:41:08.602Z,23.73
2019-01-24T18:43:33.413Z,23.53
2019-01-24T18:46:02.981Z,23.17
2019-01-24T18:48:31.980Z,23.10
2019-01-24T18:51:01.011Z,25.30
2019-01-24T18:53:30.042Z,24.03
2019-01-24T18:55:59.146Z,26.27
2019-01-24T18:58:28.247Z,27.83
2019-01-24T19:00:57.411Z,24.97
2019-01-24T19:03:26.544Z,26.03
2019-01-24T19:05:55.649Z,26.07
2019-01-24T19:08:24.675Z,26.10
2019-01-24T19:10:53.745Z,26.40
2019-01-24T19:13:22.922Z,28.10
2019-01-24T19:15:52.039Z,26.53
2019-01-24T19:18:21.054Z,26.83
2019-01-24T19:20:50.134Z,27.83
2019-01-24T19:23:19.386Z,25.40
2019-01-24T19:25:48.457Z,27.17
2019-01-24T19:28:18.093Z,27.17
2019-01-24T19:30:47.180Z,26.83
2019-01-24T19:33:16.195Z,28.07
2019-01-24T19:35:45.267Z,25.57
2019-01-24T19:38:14.693Z,26.83
2019-01-24T19:40:43.714Z,25.50
2019-01-24T19:43:12.803Z,25.17
2019-01-24T19:45:41.882Z,25.77
2019-01-24T19:48:11.021Z,26.33
2019-01-24T19:50:40.113Z,25.67
2019-01-24T19:53:09.208Z,28.13
2019-01-24T19:55:38.237Z,27.07
2019-01-24T19:58:07.449Z,25.27
2019-01-24T20:00:36.572Z,25.50
2019-01-24T20:03:05.975Z,24.40
2019-01-24T20:05:35.122Z,24.40
2019-01-24T20:08:04.575Z,24.87
2019-01-24T20:10:33.637Z,27.20
2019-01-24T20:13:02.693Z,26.73
2019-01-24T20:15:32.003Z,26.93
2019-01-24T20:18:01.180Z,27.67
2019-01-24T20:20:30.305Z,27.90
2019-01-24T20:22:59.458Z,28.33
2019-01-24T20:25:32.235Z,27.83
2019-01-24T20:28:01.267Z,26.10
2019-01-24T20:30:31.049Z,27.77
2019-01-24T20:33:00.704Z,26.43
2019-01-24T20:35:31.117Z,28.37
2019-01-24T20:38:00.312Z,27.17
2019-01-24T20:40:29.294Z,27.43
2019-01-24T20:42:58.314Z,27.63
2019-01-24T20:45:27.362Z,27.03
2019-01-24T20:47:56.496Z,27.07
2019-01-24T20:50:25.522Z,27.13
2019-01-24T20:52:54.553Z,27.87
2019-01-24T20:55:23.632Z,29.13
2019-01-24T20:57:52.748Z,28.10
2019-01-24T21:00:22.221Z,26.80
2019-01-24T21:02:51.464Z,26.87
2019-01-24T21:05:20.929Z,29.03
2019-01-24T21:07:50.233Z,27.37
2019-01-24T21:10:20.444Z,24.93
2019-01-24T21:12:51.271Z,25.53
2019-01-24T21:15:20.388Z,25.47
2019-01-24T21:17:49.537Z,25.23
2019-01-24T21:20:19.510Z,25.33
2019-01-24T21:22:48.685Z,25.20
2019-01-24T21:25:18.095Z,25.10
2019-01-24T21:27:47.176Z,25.70
2019-01-24T21:30:17.608Z,24.20
2019-01-24T21:32:46.699Z,24.17
2019-01-24T21:35:15.854Z,27.00
2019-01-24T21:37:44.925Z,24.87
2019-01-24T21:40:14.970Z,22.40
2019-01-24T21:42:44.108Z,24.50
2019-01-24T21:45:15.419Z,23.63
2019-01-24T21:47:46.939Z,22.33
2019-01-24T21:50:16.995Z,23.50
2019-01-24T21:52:46.037Z,25.57
2019-01-24T21:55:15.787Z,26.30
2019-01-24T21:57:44.819Z,25.47
2019-01-24T22:00:14.945Z,25.87
2019-01-24T22:02:43.988Z,24.90
2019-01-24T22:05:13.049Z,24.53
2019-01-24T22:07:42.195Z,26.60
2019-01-24T22:10:12.345Z,26.77
2019-01-24T22:12:41.436Z,26.73
2019-01-24T22:15:11.929Z,24.57
2019-01-24T22:17:41.047Z,25.13
2019-01-24T22:20:10.142Z,24.40
2019-01-24T22:22:39.143Z,26.13
2019-01-24T22:25:09.316Z,25.87
2019-01-24T22:27:38.315Z,25.90
2019-01-24T22:30:08.792Z,26.67
2019-01-24T22:32:37.809Z,28.03
2019-01-24T22:35:06.834Z,26.37
2019-01-24T22:37:35.835Z,26.30
2019-01-24T22:40:05.267Z,27.63
2019-01-24T22:42:34.317Z,26.80
2019-01-24T22:45:03.341Z,28.33
2019-01-24T22:47:32.406Z,28.63
2019-01-24T22:50:01.508Z,28.30
2019-01-24T22:52:30.543Z,28.13
2019-01-24T22:54:59.556Z,27.73
2019-01-24T22:57:29.627Z,30.03
2019-01-24T22:59:58.671Z,27.57
2019-01-24T23:02:28.656Z,27.60
2019-01-24T23:04:57.640Z,26.13
2019-01-24T23:07:26.622Z,28.03
2019-01-24T23:09:55.623Z,26.93
2019-01-24T23:12:24.614Z,27.70
2019-01-24T23:14:53.687Z,28.40
2019-01-24T23:17:22.664Z,28.77
2019-01-24T23:19:51.666Z,28.33
2019-01-24T23:22:20.659Z,28.93
2019-01-24T23:24:49.652Z,29.03
2019-01-24T23:27:18.687Z,28.97
2019-01-24T23:29:47.768Z,26.77
2019-01-24T23:32:35.930Z,27.93
2019-01-24T23:35:05.352Z,28.40
2019-01-24T23:37:34.416Z,27.90
2019-01-24T23:40:03.926Z,26.70
2019-01-24T23:42:32.939Z,28.30
2019-01-24T23:45:02.003Z,28.73
2019-01-24T23:47:31.003Z,28.43
2019-01-24T23:49:59.996Z,28.30
2019-01-24T23:52:28.979Z,27.43
2019-01-24T23:54:57.993Z,33.47
2019-01-24T23:57:27.031Z,29.00
2019-01-24T23:59:56.055Z,29.77
